sensor_id;sensor_type;location;lat;lon;timestamp;P1;durP1;ratioP1;P2;durP2;ratioP2
74483;SDS011;62942;52.462;10.846;2023-10-09T00:00:16;1.8;;;5.4;;
74483;SDS011;62942;52.462;10.846;2023-10-09T00:01:26;2;;;7.4;;
74483;SDS011;62942;52.462;10.846;2023-10-09T00:02:26;1.7;;;3.8;;
74483;SDS011;62942;52.462;10.846;2023-10-09T00:03:26;1.8;;;5;;
74483;SDS011;62942;52.462;10.846;2023-10-09T00:04:36;1.9;;;6;;
74483;SDS011;62942;52.462;10.846;2023-10-09T00:05:46;1.7;;;4.3;;
74483;SDS011;62942;52.462;10.846;2023-10-09T00:06:56;1.7;;;5.6;;
74483;SDS011;62942;52.462;10.846;2023-10-09T00:08:06;1.7;;;4;;
74483;SDS011;62942;52.462;10.846;2023-10-09T00:09:16;1.9;;;5.4;;
74483;SDS011;62942;52.462;10.846;2023-10-09T00:10:26;2;;;6.6;;
74483;SDS011;62942;52.462;10.846;2023-10-09T00:11:37;2;;;5.3;;
74483;SDS011;62942;52.462;10.846;2023-10-09T00:12:46;1.9;;;4.6;;
74483;SDS011;62942;52.462;10.846;2023-10-09T00:13:56;1.7;;;5;;
74483;SDS011;62942;52.462;10.846;2023-10-09T00:15:07;1.8;;;4;;
74483;SDS011;62942;52.462;10.846;2023-10-09T00:16:17;1.8;;;4;;
74483;SDS011;62942;52.462;10.846;2023-10-09T00:17:26;2;;;4.2;;
74483;SDS011;62942;52.462;10.846;2023-10-09T00:18:36;1.9;;;5;;
74483;SDS011;62942;52.462;10.846;2023-10-09T00:19:46;2;;;5.4;;
74483;SDS011;62942;52.462;10.846;2023-10-09T00:20:56;1.9;;;4.1;;
74483;SDS011;62942;52.462;10.846;2023-10-09T00:22:06;2;;;5;;
74483;SDS011;62942;52.462;10.846;2023-10-09T00:23:16;2.1;;;4.7;;
74483;SDS011;62942;52.462;10.846;2023-10-09T00:24:26;2;;;5.3;;
74483;SDS011;62942;52.462;10.846;2023-10-09T00:25:36;2.1;;;5;;
74483;SDS011;62942;52.462;10.846;2023-10-09T00:26:46;2.1;;;4.5;;
74483;SDS011;62942;52.462;10.846;2023-10-09T00:27:56;2.1;;;6.1;;
74483;SDS011;62942;52.462;10.846;2023-10-09T00:29:06;2.5;;;5.5;;
74483;SDS011;62942;52.462;10.846;2023-10-09T00:30:16;2;;;5.2;;
74483;SDS011;62942;52.462;10.846;2023-10-09T00:31:26;2.4;;;6.6;;
74483;SDS011;62942;52.462;10.846;2023-10-09T00:32:26;2.4;;;4.3;;
74483;SDS011;62942;52.462;10.846;2023-10-09T00:33:36;2.3;;;4.4;;
74483;SDS011;62942;52.462;10.846;2023-10-09T00:34:46;2.6;;;6.7;;
74483;SDS011;62942;52.462;10.846;2023-10-09T00:35:56;2;;;3.9;;
74483;SDS011;62942;52.462;10.846;2023-10-09T00:37:06;2.5;;;5.5;;
74483;SDS011;62942;52.462;10.846;2023-10-09T00:38:16;2.5;;;6.1;;
74483;SDS011;62942;52.462;10.846;2023-10-09T00:39:16;2.4;;;4.7;;
74483;SDS011;62942;52.462;10.846;2023-10-09T00:40:16;2.7;;;6.3;;
74483;SDS011;62942;52.462;10.846;2023-10-09T00:41:26;2.4;;;6.4;;
74483;SDS011;62942;52.462;10.846;2023-10-09T00:42:36;2.4;;;5.8;;
74483;SDS011;62942;52.462;10.846;2023-10-09T00:43:37;2.5;;;6.4;;
74483;SDS011;62942;52.462;10.846;2023-10-09T00:44:36;2.5;;;5.7;;
74483;SDS011;62942;52.462;10.846;2023-10-09T00:45:36;2.3;;;5.4;;
74483;SDS011;62942;52.462;10.846;2023-10-09T00:46:46;2.3;;;4.4;;
74483;SDS011;62942;52.462;10.846;2023-10-09T00:47:56;2.4;;;6;;
74483;SDS011;62942;52.462;10.846;2023-10-09T00:48:57;2.4;;;5.9;;
74483;SDS011;62942;52.462;10.846;2023-10-09T00:50:07;2.5;;;8.2;;
74483;SDS011;62942;52.462;10.846;2023-10-09T00:51:16;2.2;;;5.2;;
74483;SDS011;62942;52.462;10.846;2023-10-09T00:52:27;2.2;;;5.8;;
74483;SDS011;62942;52.462;10.846;2023-10-09T00:53:36;2.5;;;5.6;;
74483;SDS011;62942;52.462;10.846;2023-10-09T00:54:46;2.6;;;4.9;;
74483;SDS011;62942;52.462;10.846;2023-10-09T00:55:46;2.3;;;4.9;;
74483;SDS011;62942;52.462;10.846;2023-10-09T00:56:56;2.4;;;5.3;;
74483;SDS011;62942;52.462;10.846;2023-10-09T00:58:06;2.4;;;4.5;;
74483;SDS011;62942;52.462;10.846;2023-10-09T00:59:16;2.7;;;5.7;;
74483;SDS011;62942;52.462;10.846;2023-10-09T01:00:16;2.5;;;5.3;;
74483;SDS011;62942;52.462;10.846;2023-10-09T01:01:26;2.6;;;8.9;;
74483;SDS011;62942;52.462;10.846;2023-10-09T01:02:36;2.8;;;7.8;;
74483;SDS011;62942;52.462;10.846;2023-10-09T01:03:46;2.5;;;5.8;;
74483;SDS011;62942;52.462;10.846;2023-10-09T01:04:56;2.6;;;6.8;;
74483;SDS011;62942;52.462;10.846;2023-10-09T01:06:06;2.5;;;6.3;;
74483;SDS011;62942;52.462;10.846;2023-10-09T01:07:16;2.7;;;6.9;;
74483;SDS011;62942;52.462;10.846;2023-10-09T01:08:16;2.6;;;6.1;;
74483;SDS011;62942;52.462;10.846;2023-10-09T01:09:26;2.6;;;5.5;;
74483;SDS011;62942;52.462;10.846;2023-10-09T01:10:43;2.6;;;4.8;;
74483;SDS011;62942;52.462;10.846;2023-10-09T01:11:36;2.7;;;6.7;;
74483;SDS011;62942;52.462;10.846;2023-10-09T01:12:36;2.6;;;6.1;;
74483;SDS011;62942;52.462;10.846;2023-10-09T01:13:47;2.7;;;7.5;;
74483;SDS011;62942;52.462;10.846;2023-10-09T01:14:46;2.5;;;5.8;;
74483;SDS011;62942;52.462;10.846;2023-10-09T01:15:56;2.4;;;7.4;;
74483;SDS011;62942;52.462;10.846;2023-10-09T01:17:06;2.6;;;5.7;;
74483;SDS011;62942;52.462;10.846;2023-10-09T01:18:06;2.4;;;5.8;;
74483;SDS011;62942;52.462;10.846;2023-10-09T01:19:06;2.3;;;4.7;;
74483;SDS011;62942;52.462;10.846;2023-10-09T01:20:06;2.4;;;6.5;;
74483;SDS011;62942;52.462;10.846;2023-10-09T01:21:16;2.5;;;6.1;;
74483;SDS011;62942;52.462;10.846;2023-10-09T01:22:26;2.4;;;5.4;;
74483;SDS011;62942;52.462;10.846;2023-10-09T01:23:26;2.4;;;5.7;;
74483;SDS011;62942;52.462;10.846;2023-10-09T01:24:36;2.2;;;5.2;;
74483;SDS011;62942;52.462;10.846;2023-10-09T01:25:46;2.3;;;5;;
74483;SDS011;62942;52.462;10.846;2023-10-09T01:26:47;2.2;;;5.2;;
74483;SDS011;62942;52.462;10.846;2023-10-09T01:27:56;2.2;;;4.9;;
74483;SDS011;62942;52.462;10.846;2023-10-09T01:28:56;2.6;;;6;;
74483;SDS011;62942;52.462;10.846;2023-10-09T01:30:06;2.3;;;4.9;;
74483;SDS011;62942;52.462;10.846;2023-10-09T01:31:06;2.5;;;5.1;;
74483;SDS011;62942;52.462;10.846;2023-10-09T01:32:16;2.1;;;4.5;;
74483;SDS011;62942;52.462;10.846;2023-10-09T01:33:16;2.3;;;5.4;;
74483;SDS011;62942;52.462;10.846;2023-10-09T01:34:27;2.3;;;6.5;;
74483;SDS011;62942;52.462;10.846;2023-10-09T01:35:26;2.5;;;6;;
74483;SDS011;62942;52.462;10.846;2023-10-09T01:36:36;2.4;;;5.3;;
74483;SDS011;62942;52.462;10.846;2023-10-09T01:37:46;2.6;;;5.6;;
74483;SDS011;62942;52.462;10.846;2023-10-09T01:38:46;2.5;;;5.3;;
74483;SDS011;62942;52.462;10.846;2023-10-09T01:39:57;2.4;;;5.6;;
74483;SDS011;62942;52.462;10.846;2023-10-09T01:40:56;2.5;;;8.8;;
74483;SDS011;62942;52.462;10.846;2023-10-09T01:42:06;2.4;;;7.3;;
74483;SDS011;62942;52.462;10.846;2023-10-09T01:43:16;2.4;;;6;;
74483;SDS011;62942;52.462;10.846;2023-10-09T01:44:16;2.5;;;6.5;;
74483;SDS011;62942;52.462;10.846;2023-10-09T01:45:26;2.4;;;4.9;;
74483;SDS011;62942;52.462;10.846;2023-10-09T01:46:36;2.5;;;4.7;;
74483;SDS011;62942;52.462;10.846;2023-10-09T01:47:46;2.4;;;5.9;;
74483;SDS011;62942;52.462;10.846;2023-10-09T01:48:56;2.6;;;5.7;;
74483;SDS011;62942;52.462;10.846;2023-10-09T01:49:56;2.5;;;4.3;;
74483;SDS011;62942;52.462;10.846;2023-10-09T01:50:56;2.5;;;5.6;;
74483;SDS011;62942;52.462;10.846;2023-10-09T01:52:06;2.7;;;6.9;;
74483;SDS011;62942;52.462;10.846;2023-10-09T01:53:16;2.8;;;7.8;;
74483;SDS011;62942;52.462;10.846;2023-10-09T01:54:26;2.5;;;5.3;;
74483;SDS011;62942;52.462;10.846;2023-10-09T01:55:26;2.4;;;5.3;;
74483;SDS011;62942;52.462;10.846;2023-10-09T01:56:36;2.7;;;5.9;;
74483;SDS011;62942;52.462;10.846;2023-10-09T01:57:46;2.6;;;5;;
74483;SDS011;62942;52.462;10.846;2023-10-09T01:58:46;2.6;;;7.2;;
74483;SDS011;62942;52.462;10.846;2023-10-09T01:59:46;2.8;;;5.7;;
74483;SDS011;62942;52.462;10.846;2023-10-09T02:00:56;2.6;;;5.3;;
74483;SDS011;62942;52.462;10.846;2023-10-09T02:01:56;2.8;;;5.5;;
74483;SDS011;62942;52.462;10.846;2023-10-09T02:03:06;2.6;;;6.4;;
74483;SDS011;62942;52.462;10.846;2023-10-09T02:04:06;2.7;;;6.7;;
74483;SDS011;62942;52.462;10.846;2023-10-09T02:05:06;2.5;;;4.7;;
74483;SDS011;62942;52.462;10.846;2023-10-09T02:06:16;2.6;;;6.2;;
74483;SDS011;62942;52.462;10.846;2023-10-09T02:07:16;2.8;;;6.4;;
74483;SDS011;62942;52.462;10.846;2023-10-09T02:08:26;2.8;;;5.5;;
74483;SDS011;62942;52.462;10.846;2023-10-09T02:09:36;2.8;;;5.5;;
74483;SDS011;62942;52.462;10.846;2023-10-09T02:10:36;2.8;;;5.7;;
74483;SDS011;62942;52.462;10.846;2023-10-09T02:11:46;2.7;;;6;;
74483;SDS011;62942;52.462;10.846;2023-10-09T02:12:57;2.9;;;7;;
74483;SDS011;62942;52.462;10.846;2023-10-09T02:14:06;2.9;;;7.8;;
74483;SDS011;62942;52.462;10.846;2023-10-09T02:15:06;2.7;;;7.4;;
74483;SDS011;62942;52.462;10.846;2023-10-09T02:16:16;2.8;;;6.9;;
74483;SDS011;62942;52.462;10.846;2023-10-09T02:17:26;2.6;;;4.9;;
74483;SDS011;62942;52.462;10.846;2023-10-09T02:18:26;2.8;;;6.5;;
74483;SDS011;62942;52.462;10.846;2023-10-09T02:19:36;2.9;;;7.4;;
74483;SDS011;62942;52.462;10.846;2023-10-09T02:20:47;2.7;;;5.4;;
74483;SDS011;62942;52.462;10.846;2023-10-09T02:21:46;2.4;;;5.2;;
74483;SDS011;62942;52.462;10.846;2023-10-09T02:22:56;2.7;;;5.1;;
74483;SDS011;62942;52.462;10.846;2023-10-09T02:24:06;2.8;;;6.1;;
74483;SDS011;62942;52.462;10.846;2023-10-09T02:25:06;2.7;;;6;;
74483;SDS011;62942;52.462;10.846;2023-10-09T02:26:17;2.6;;;6;;
74483;SDS011;62942;52.462;10.846;2023-10-09T02:27:26;2.8;;;7.2;;
74483;SDS011;62942;52.462;10.846;2023-10-09T02:28:26;2.6;;;6.6;;
74483;SDS011;62942;52.462;10.846;2023-10-09T02:29:36;2.6;;;6.8;;
74483;SDS011;62942;52.462;10.846;2023-10-09T02:30:46;2.8;;;6.2;;
74483;SDS011;62942;52.462;10.846;2023-10-09T02:31:56;2.8;;;6.3;;
74483;SDS011;62942;52.462;10.846;2023-10-09T02:32:56;2.8;;;6;;
74483;SDS011;62942;52.462;10.846;2023-10-09T02:34:06;2.4;;;5.4;;
74483;SDS011;62942;52.462;10.846;2023-10-09T02:35:16;2.6;;;5.3;;
74483;SDS011;62942;52.462;10.846;2023-10-09T02:36:16;2.5;;;6;;
74483;SDS011;62942;52.462;10.846;2023-10-09T02:37:26;2.4;;;6.2;;
74483;SDS011;62942;52.462;10.846;2023-10-09T02:38:26;2.7;;;5.9;;
74483;SDS011;62942;52.462;10.846;2023-10-09T02:39:36;2.5;;;5.3;;
74483;SDS011;62942;52.462;10.846;2023-10-09T02:40:36;2.5;;;5.7;;
74483;SDS011;62942;52.462;10.846;2023-10-09T02:41:46;2.4;;;4.8;;
74483;SDS011;62942;52.462;10.846;2023-10-09T02:42:46;2.5;;;5.3;;
74483;SDS011;62942;52.462;10.846;2023-10-09T02:43:56;2.6;;;8.1;;
74483;SDS011;62942;52.462;10.846;2023-10-09T02:45:06;2.3;;;5.4;;
74483;SDS011;62942;52.462;10.846;2023-10-09T02:46:06;2.1;;;4.6;;
74483;SDS011;62942;52.462;10.846;2023-10-09T02:47:17;2.2;;;5.5;;
74483;SDS011;62942;52.462;10.846;2023-10-09T02:48:26;2.5;;;6.6;;
74483;SDS011;62942;52.462;10.846;2023-10-09T02:49:26;2.3;;;5.8;;
74483;SDS011;62942;52.462;10.846;2023-10-09T02:50:36;2.3;;;4.6;;
74483;SDS011;62942;52.462;10.846;2023-10-09T02:51:46;2.5;;;6;;
74483;SDS011;62942;52.462;10.846;2023-10-09T02:52:56;2.4;;;5.8;;
74483;SDS011;62942;52.462;10.846;2023-10-09T02:53:57;2.4;;;5.5;;
74483;SDS011;62942;52.462;10.846;2023-10-09T02:55:06;2.4;;;6;;
74483;SDS011;62942;52.462;10.846;2023-10-09T02:56:06;2.3;;;4.8;;
74483;SDS011;62942;52.462;10.846;2023-10-09T02:57:06;2.5;;;5.7;;
74483;SDS011;62942;52.462;10.846;2023-10-09T02:58:16;2.3;;;4.5;;
74483;SDS011;62942;52.462;10.846;2023-10-09T02:59:16;2.5;;;6.5;;
74483;SDS011;62942;52.462;10.846;2023-10-09T03:00:26;2.2;;;5.2;;
74483;SDS011;62942;52.462;10.846;2023-10-09T03:01:26;2.2;;;4.5;;
74483;SDS011;62942;52.462;10.846;2023-10-09T03:02:36;2.3;;;5;;
74483;SDS011;62942;52.462;10.846;2023-10-09T03:03:36;2.7;;;7;;
74483;SDS011;62942;52.462;10.846;2023-10-09T03:04:46;2.5;;;5.8;;
74483;SDS011;62942;52.462;10.846;2023-10-09T03:05:56;2.4;;;5.4;;
74483;SDS011;62942;52.462;10.846;2023-10-09T03:06:56;2.5;;;6.3;;
74483;SDS011;62942;52.462;10.846;2023-10-09T03:08:06;2.5;;;5.7;;
74483;SDS011;62942;52.462;10.846;2023-10-09T03:09:06;2.4;;;5.4;;
74483;SDS011;62942;52.462;10.846;2023-10-09T03:10:07;2.5;;;5.3;;
74483;SDS011;62942;52.462;10.846;2023-10-09T03:11:16;2.5;;;4.9;;
74483;SDS011;62942;52.462;10.846;2023-10-09T03:12:16;2.3;;;5.5;;
74483;SDS011;62942;52.462;10.846;2023-10-09T03:13:26;2.3;;;5.4;;
74483;SDS011;62942;52.462;10.846;2023-10-09T03:14:37;2.5;;;6.7;;
74483;SDS011;62942;52.462;10.846;2023-10-09T03:15:38;2.4;;;6;;
74483;SDS011;62942;52.462;10.846;2023-10-09T03:16:46;2.6;;;7.9;;
74483;SDS011;62942;52.462;10.846;2023-10-09T03:17:56;2.5;;;5.9;;
74483;SDS011;62942;52.462;10.846;2023-10-09T03:19:06;2.5;;;4.5;;
74483;SDS011;62942;52.462;10.846;2023-10-09T03:20:16;2.5;;;5.8;;
74483;SDS011;62942;52.462;10.846;2023-10-09T03:21:26;2.6;;;7.9;;
74483;SDS011;62942;52.462;10.846;2023-10-09T03:22:36;2.5;;;6.3;;
74483;SDS011;62942;52.462;10.846;2023-10-09T03:23:36;2.6;;;7.1;;
74483;SDS011;62942;52.462;10.846;2023-10-09T03:24:46;2.5;;;5.7;;
74483;SDS011;62942;52.462;10.846;2023-10-09T03:25:46;2.5;;;6;;
74483;SDS011;62942;52.462;10.846;2023-10-09T03:26:56;2.4;;;5.5;;
74483;SDS011;62942;52.462;10.846;2023-10-09T03:27:56;2.3;;;5.1;;
74483;SDS011;62942;52.462;10.846;2023-10-09T03:28:56;2.7;;;6;;
74483;SDS011;62942;52.462;10.846;2023-10-09T03:29:56;2.5;;;7.6;;
74483;SDS011;62942;52.462;10.846;2023-10-09T03:31:06;2.6;;;6;;
74483;SDS011;62942;52.462;10.846;2023-10-09T03:32:06;2.5;;;5.4;;
74483;SDS011;62942;52.462;10.846;2023-10-09T03:33:16;2.4;;;6.4;;
74483;SDS011;62942;52.462;10.846;2023-10-09T03:34:16;2.5;;;5.5;;
74483;SDS011;62942;52.462;10.846;2023-10-09T03:35:16;2.6;;;5.9;;
74483;SDS011;62942;52.462;10.846;2023-10-09T03:36:26;2.3;;;4.9;;
74483;SDS011;62942;52.462;10.846;2023-10-09T03:37:26;2.5;;;5.9;;
74483;SDS011;62942;52.462;10.846;2023-10-09T03:38:36;2.6;;;5.3;;
74483;SDS011;62942;52.462;10.846;2023-10-09T03:39:36;2.5;;;5.5;;
74483;SDS011;62942;52.462;10.846;2023-10-09T03:40:46;2.5;;;7.5;;
74483;SDS011;62942;52.462;10.846;2023-10-09T03:41:56;2.4;;;5;;
74483;SDS011;62942;52.462;10.846;2023-10-09T03:43:06;2.6;;;5.7;;
74483;SDS011;62942;52.462;10.846;2023-10-09T03:44:06;2.5;;;5.7;;
74483;SDS011;62942;52.462;10.846;2023-10-09T03:45:16;2.6;;;5.4;;
74483;SDS011;62942;52.462;10.846;2023-10-09T03:46:16;2.7;;;6.3;;
74483;SDS011;62942;52.462;10.846;2023-10-09T03:47:26;2.7;;;8.4;;
74483;SDS011;62942;52.462;10.846;2023-10-09T03:48:36;2.5;;;8.2;;
74483;SDS011;62942;52.462;10.846;2023-10-09T03:49:46;2.8;;;7.7;;
74483;SDS011;62942;52.462;10.846;2023-10-09T03:50:56;2.6;;;6.6;;
74483;SDS011;62942;52.462;10.846;2023-10-09T03:51:56;2.4;;;6.2;;
74483;SDS011;62942;52.462;10.846;2023-10-09T03:53:06;2.4;;;5.3;;
74483;SDS011;62942;52.462;10.846;2023-10-09T03:54:06;2.4;;;5.6;;
74483;SDS011;62942;52.462;10.846;2023-10-09T03:55:16;2.5;;;6.3;;
74483;SDS011;62942;52.462;10.846;2023-10-09T03:56:26;2.2;;;4.7;;
74483;SDS011;62942;52.462;10.846;2023-10-09T03:57:36;2.3;;;5.3;;
74483;SDS011;62942;52.462;10.846;2023-10-09T03:58:36;2.5;;;6.6;;
74483;SDS011;62942;52.462;10.846;2023-10-09T03:59:36;2.5;;;6;;
74483;SDS011;62942;52.462;10.846;2023-10-09T04:00:46;2.3;;;6;;
74483;SDS011;62942;52.462;10.846;2023-10-09T04:01:56;2.5;;;6.3;;
74483;SDS011;62942;52.462;10.846;2023-10-09T04:02:56;2.6;;;5.3;;
74483;SDS011;62942;52.462;10.846;2023-10-09T04:04:06;2.6;;;5.3;;
74483;SDS011;62942;52.462;10.846;2023-10-09T04:05:06;2.4;;;5.3;;
74483;SDS011;62942;52.462;10.846;2023-10-09T04:06:06;2.5;;;6.5;;
74483;SDS011;62942;52.462;10.846;2023-10-09T04:07:16;2.4;;;4.7;;
74483;SDS011;62942;52.462;10.846;2023-10-09T04:08:26;2.6;;;5.8;;
74483;SDS011;62942;52.462;10.846;2023-10-09T04:09:26;2.5;;;6.4;;
74483;SDS011;62942;52.462;10.846;2023-10-09T04:10:36;2.5;;;5.6;;
74483;SDS011;62942;52.462;10.846;2023-10-09T04:11:46;2.5;;;5.4;;
74483;SDS011;62942;52.462;10.846;2023-10-09T04:12:56;2.5;;;5;;
74483;SDS011;62942;52.462;10.846;2023-10-09T04:13:56;2.4;;;5.3;;
74483;SDS011;62942;52.462;10.846;2023-10-09T04:14:56;2.5;;;7.2;;
74483;SDS011;62942;52.462;10.846;2023-10-09T04:15:56;2.7;;;6.3;;
74483;SDS011;62942;52.462;10.846;2023-10-09T04:17:06;2.6;;;5;;
74483;SDS011;62942;52.462;10.846;2023-10-09T04:18:16;2.3;;;5.2;;
74483;SDS011;62942;52.462;10.846;2023-10-09T04:19:16;2.4;;;4.8;;
74483;SDS011;62942;52.462;10.846;2023-10-09T04:20:16;2.8;;;5.4;;
74483;SDS011;62942;52.462;10.846;2023-10-09T04:21:26;2.6;;;6;;
74483;SDS011;62942;52.462;10.846;2023-10-09T04:22:26;2.6;;;6.7;;
74483;SDS011;62942;52.462;10.846;2023-10-09T04:23:26;2.6;;;5.7;;
74483;SDS011;62942;52.462;10.846;2023-10-09T04:24:26;2.5;;;6.5;;
74483;SDS011;62942;52.462;10.846;2023-10-09T04:25:36;2.6;;;6.4;;
74483;SDS011;62942;52.462;10.846;2023-10-09T04:26:36;2.5;;;6;;
74483;SDS011;62942;52.462;10.846;2023-10-09T04:27:46;2.5;;;6.2;;
74483;SDS011;62942;52.462;10.846;2023-10-09T04:28:56;2.4;;;5.4;;
74483;SDS011;62942;52.462;10.846;2023-10-09T04:29:56;2.7;;;7.3;;
74483;SDS011;62942;52.462;10.846;2023-10-09T04:31:06;2.3;;;6.2;;
74483;SDS011;62942;52.462;10.846;2023-10-09T04:32:16;2.2;;;6;;
74483;SDS011;62942;52.462;10.846;2023-10-09T04:33:16;2.7;;;6.8;;
74483;SDS011;62942;52.462;10.846;2023-10-09T04:34:26;2.6;;;5.5;;
74483;SDS011;62942;52.462;10.846;2023-10-09T04:35:29;2.5;;;6;;
74483;SDS011;62942;52.462;10.846;2023-10-09T04:36:36;2.8;;;6.7;;
74483;SDS011;62942;52.462;10.846;2023-10-09T04:37:46;2.4;;;5.5;;
74483;SDS011;62942;52.462;10.846;2023-10-09T04:38:56;2.6;;;6.4;;
74483;SDS011;62942;52.462;10.846;2023-10-09T04:40:08;2.4;;;6.1;;
74483;SDS011;62942;52.462;10.846;2023-10-09T04:41:16;2.4;;;5.1;;
74483;SDS011;62942;52.462;10.846;2023-10-09T04:42:26;2.6;;;6.1;;
74483;SDS011;62942;52.462;10.846;2023-10-09T04:43:26;2.6;;;7.3;;
74483;SDS011;62942;52.462;10.846;2023-10-09T04:44:26;2.5;;;5.4;;
74483;SDS011;62942;52.462;10.846;2023-10-09T04:45:36;2.5;;;4.6;;
74483;SDS011;62942;52.462;10.846;2023-10-09T04:46:46;2.5;;;5.2;;
74483;SDS011;62942;52.462;10.846;2023-10-09T04:47:56;2.3;;;6;;
74483;SDS011;62942;52.462;10.846;2023-10-09T04:49:06;2.5;;;5.8;;
74483;SDS011;62942;52.462;10.846;2023-10-09T04:50:16;2.7;;;5.9;;
74483;SDS011;62942;52.462;10.846;2023-10-09T04:51:26;2.4;;;5.9;;
74483;SDS011;62942;52.462;10.846;2023-10-09T04:52:36;2.5;;;5.5;;
74483;SDS011;62942;52.462;10.846;2023-10-09T04:53:36;2.5;;;5.8;;
74483;SDS011;62942;52.462;10.846;2023-10-09T04:54:46;2.5;;;4.7;;
74483;SDS011;62942;52.462;10.846;2023-10-09T04:55:56;2.4;;;6.8;;
74483;SDS011;62942;52.462;10.846;2023-10-09T04:56:56;2.4;;;5.8;;
74483;SDS011;62942;52.462;10.846;2023-10-09T04:58:06;2.7;;;6.5;;
74483;SDS011;62942;52.462;10.846;2023-10-09T04:59:16;2.5;;;5.8;;
74483;SDS011;62942;52.462;10.846;2023-10-09T05:00:16;2.6;;;5.1;;
74483;SDS011;62942;52.462;10.846;2023-10-09T05:01:26;2.5;;;5.5;;
74483;SDS011;62942;52.462;10.846;2023-10-09T05:02:36;2.7;;;5.5;;
74483;SDS011;62942;52.462;10.846;2023-10-09T05:03:46;2.7;;;5.6;;
74483;SDS011;62942;52.462;10.846;2023-10-09T05:04:56;2.3;;;5.4;;
74483;SDS011;62942;52.462;10.846;2023-10-09T05:06:06;2.7;;;6.7;;
74483;SDS011;62942;52.462;10.846;2023-10-09T05:07:06;2.5;;;5.8;;
74483;SDS011;62942;52.462;10.846;2023-10-09T05:08:16;2.7;;;5.7;;
74483;SDS011;62942;52.462;10.846;2023-10-09T05:09:26;2.4;;;6.6;;
74483;SDS011;62942;52.462;10.846;2023-10-09T05:10:36;2.5;;;5.7;;
74483;SDS011;62942;52.462;10.846;2023-10-09T05:11:36;2.5;;;6.3;;
74483;SDS011;62942;52.462;10.846;2023-10-09T05:12:46;2.2;;;5.8;;
74483;SDS011;62942;52.462;10.846;2023-10-09T05:13:56;2.7;;;8.5;;
74483;SDS011;62942;52.462;10.846;2023-10-09T05:15:06;2.6;;;5.5;;
74483;SDS011;62942;52.462;10.846;2023-10-09T05:16:16;2.4;;;5.4;;
74483;SDS011;62942;52.462;10.846;2023-10-09T05:17:26;2.4;;;5.5;;
74483;SDS011;62942;52.462;10.846;2023-10-09T05:18:36;2.3;;;5.1;;
74483;SDS011;62942;52.462;10.846;2023-10-09T05:19:46;2.5;;;5.1;;
74483;SDS011;62942;52.462;10.846;2023-10-09T05:20:56;2.7;;;7;;
74483;SDS011;62942;52.462;10.846;2023-10-09T05:21:56;2.6;;;5.3;;
74483;SDS011;62942;52.462;10.846;2023-10-09T05:23:06;2.7;;;7.3;;
74483;SDS011;62942;52.462;10.846;2023-10-09T05:24:06;2.8;;;7.6;;
74483;SDS011;62942;52.462;10.846;2023-10-09T05:25:16;2.6;;;6;;
74483;SDS011;62942;52.462;10.846;2023-10-09T05:26:26;2.7;;;6.4;;
74483;SDS011;62942;52.462;10.846;2023-10-09T05:27:26;2.6;;;5.4;;
74483;SDS011;62942;52.462;10.846;2023-10-09T05:28:36;2.8;;;6.4;;
74483;SDS011;62942;52.462;10.846;2023-10-09T05:29:36;2.9;;;6.4;;
74483;SDS011;62942;52.462;10.846;2023-10-09T05:30:36;3;;;5.7;;
74483;SDS011;62942;52.462;10.846;2023-10-09T05:31:46;3.3;;;8.5;;
74483;SDS011;62942;52.462;10.846;2023-10-09T05:32:46;3;;;6.2;;
74483;SDS011;62942;52.462;10.846;2023-10-09T05:33:46;3.1;;;6.4;;
74483;SDS011;62942;52.462;10.846;2023-10-09T05:34:56;2.8;;;6.1;;
74483;SDS011;62942;52.462;10.846;2023-10-09T05:35:56;3;;;6.1;;
74483;SDS011;62942;52.462;10.846;2023-10-09T05:36:56;3;;;6.9;;
74483;SDS011;62942;52.462;10.846;2023-10-09T05:38:07;2.9;;;5.4;;
74483;SDS011;62942;52.462;10.846;2023-10-09T05:39:16;3;;;5.9;;
74483;SDS011;62942;52.462;10.846;2023-10-09T05:40:26;3.1;;;6.3;;
74483;SDS011;62942;52.462;10.846;2023-10-09T05:41:36;2.8;;;5.8;;
74483;SDS011;62942;52.462;10.846;2023-10-09T05:42:46;3.1;;;6.2;;
74483;SDS011;62942;52.462;10.846;2023-10-09T05:43:56;3.1;;;8.3;;
74483;SDS011;62942;52.462;10.846;2023-10-09T05:44:56;3;;;7.9;;
74483;SDS011;62942;52.462;10.846;2023-10-09T05:46:06;3;;;7.2;;
74483;SDS011;62942;52.462;10.846;2023-10-09T05:47:06;3.2;;;6;;
74483;SDS011;62942;52.462;10.846;2023-10-09T05:48:16;3.1;;;7.3;;
74483;SDS011;62942;52.462;10.846;2023-10-09T05:49:26;3;;;6.7;;
74483;SDS011;62942;52.462;10.846;2023-10-09T05:50:36;3.1;;;6.1;;
74483;SDS011;62942;52.462;10.846;2023-10-09T05:51:36;3.1;;;6.2;;
74483;SDS011;62942;52.462;10.846;2023-10-09T05:52:36;3.5;;;8.2;;
74483;SDS011;62942;52.462;10.846;2023-10-09T05:53:46;3.3;;;6.8;;
74483;SDS011;62942;52.462;10.846;2023-10-09T05:54:56;3.4;;;6.4;;
74483;SDS011;62942;52.462;10.846;2023-10-09T05:56:06;3.2;;;7.2;;
74483;SDS011;62942;52.462;10.846;2023-10-09T05:57:06;3.6;;;7.6;;
74483;SDS011;62942;52.462;10.846;2023-10-09T05:58:16;3.5;;;8.8;;
74483;SDS011;62942;52.462;10.846;2023-10-09T05:59:26;3.6;;;8.1;;
74483;SDS011;62942;52.462;10.846;2023-10-09T06:00:36;3.3;;;7.4;;
74483;SDS011;62942;52.462;10.846;2023-10-09T06:01:46;3.8;;;8.1;;
74483;SDS011;62942;52.462;10.846;2023-10-09T06:02:56;3.7;;;6.4;;
74483;SDS011;62942;52.462;10.846;2023-10-09T06:04:06;3.8;;;6.8;;
74483;SDS011;62942;52.462;10.846;2023-10-09T06:05:16;3.8;;;9.8;;
74483;SDS011;62942;52.462;10.846;2023-10-09T06:06:26;3.8;;;7.8;;
74483;SDS011;62942;52.462;10.846;2023-10-09T06:07:36;3.8;;;7.8;;
74483;SDS011;62942;52.462;10.846;2023-10-09T06:08:46;3.9;;;8.6;;
74483;SDS011;62942;52.462;10.846;2023-10-09T06:09:56;4.3;;;9.5;;
74483;SDS011;62942;52.462;10.846;2023-10-09T06:10:56;4;;;8;;
74483;SDS011;62942;52.462;10.846;2023-10-09T06:12:06;4;;;8.6;;
74483;SDS011;62942;52.462;10.846;2023-10-09T06:13:06;4;;;8.6;;
74483;SDS011;62942;52.462;10.846;2023-10-09T06:14:16;4.2;;;9.3;;
74483;SDS011;62942;52.462;10.846;2023-10-09T06:15:26;4.5;;;9.2;;
74483;SDS011;62942;52.462;10.846;2023-10-09T06:16:36;4.4;;;9.5;;
74483;SDS011;62942;52.462;10.846;2023-10-09T06:17:46;4.4;;;7.9;;
74483;SDS011;62942;52.462;10.846;2023-10-09T06:18:56;4.8;;;10.8;;
74483;SDS011;62942;52.462;10.846;2023-10-09T06:19:56;4.8;;;9.9;;
74483;SDS011;62942;52.462;10.846;2023-10-09T06:21:06;5.2;;;10.4;;
74483;SDS011;62942;52.462;10.846;2023-10-09T06:22:06;5;;;11.8;;
74483;SDS011;62942;52.462;10.846;2023-10-09T06:23:16;5.1;;;12.7;;
74483;SDS011;62942;52.462;10.846;2023-10-09T06:27:55;4;;;8;;
74483;SDS011;62942;52.462;10.846;2023-10-09T06:29:05;5.6;;;10.5;;
74483;SDS011;62942;52.462;10.846;2023-10-09T06:30:15;6.1;;;13;;
74483;SDS011;62942;52.462;10.846;2023-10-09T06:31:15;6.2;;;16.1;;
74483;SDS011;62942;52.462;10.846;2023-10-09T06:32:25;6.2;;;11.8;;
74483;SDS011;62942;52.462;10.846;2023-10-09T06:33:25;6;;;12.3;;
74483;SDS011;62942;52.462;10.846;2023-10-09T06:34:35;6.2;;;11.6;;
74483;SDS011;62942;52.462;10.846;2023-10-09T06:35:45;6.5;;;13.4;;
74483;SDS011;62942;52.462;10.846;2023-10-09T06:36:55;6.7;;;12.7;;
74483;SDS011;62942;52.462;10.846;2023-10-09T06:38:05;6.7;;;12.8;;
74483;SDS011;62942;52.462;10.846;2023-10-09T06:39:05;7.5;;;13.6;;
74483;SDS011;62942;52.462;10.846;2023-10-09T06:40:15;7.2;;;13.2;;
74483;SDS011;62942;52.462;10.846;2023-10-09T06:41:15;7.7;;;13.3;;
74483;SDS011;62942;52.462;10.846;2023-10-09T06:42:15;7.7;;;15;;
74483;SDS011;62942;52.462;10.846;2023-10-09T06:43:26;7.6;;;17.5;;
74483;SDS011;62942;52.462;10.846;2023-10-09T06:44:35;8.2;;;16.2;;
74483;SDS011;62942;52.462;10.846;2023-10-09T06:45:35;8.1;;;15.9;;
74483;SDS011;62942;52.462;10.846;2023-10-09T06:46:45;7.7;;;16.3;;
74483;SDS011;62942;52.462;10.846;2023-10-09T06:47:46;8.1;;;15.9;;
74483;SDS011;62942;52.462;10.846;2023-10-09T06:48:55;8.7;;;18;;
74483;SDS011;62942;52.462;10.846;2023-10-09T06:50:05;9.2;;;17.2;;
74483;SDS011;62942;52.462;10.846;2023-10-09T06:51:06;9.2;;;17.9;;
74483;SDS011;62942;52.462;10.846;2023-10-09T06:52:15;8.7;;;15.7;;